地図

経路データ

SID SEASON NUMBER BASIN SUBBASIN NAME ISO_TIME NATURE LAT LON WMO_WIND WMO_PRES WMO_AGENCY TRACK_TYPE DIST2LAND LANDFALL IFLAG USA_AGENCY USA_ATCF_ID USA_LAT USA_LON USA_RECORD USA_STATUS USA_WIND USA_PRES USA_SSHS USA_R34_NE USA_R34_SE USA_R34_SW USA_R34_NW USA_R50_NE USA_R50_SE USA_R50_SW USA_R50_NW USA_R64_NE USA_R64_SE USA_R64_SW USA_R64_NW USA_POCI USA_ROCI USA_RMW USA_EYE TOKYO_LAT TOKYO_LON TOKYO_GRADE TOKYO_WIND TOKYO_PRES TOKYO_R50_DIR TOKYO_R50_LONG TOKYO_R50_SHORT TOKYO_R30_DIR TOKYO_R30_LONG TOKYO_R30_SHORT TOKYO_LAND CMA_LAT CMA_LON CMA_CAT CMA_WIND CMA_PRES HKO_LAT HKO_LON HKO_CAT HKO_WIND HKO_PRES NEWDELHI_LAT NEWDELHI_LON NEWDELHI_GRADE NEWDELHI_WIND NEWDELHI_PRES NEWDELHI_CI NEWDELHI_DP NEWDELHI_POCI REUNION_LAT REUNION_LON REUNION_TYPE REUNION_WIND REUNION_PRES REUNION_TNUM REUNION_CI REUNION_RMW REUNION_R34_NE REUNION_R34_SE REUNION_R34_SW REUNION_R34_NW REUNION_R50_NE REUNION_R50_SE REUNION_R50_SW REUNION_R50_NW REUNION_R64_NE REUNION_R64_SE REUNION_R64_SW REUNION_R64_NW BOM_LAT BOM_LON BOM_TYPE BOM_WIND BOM_PRES BOM_TNUM BOM_CI BOM_RMW BOM_R34_NE BOM_R34_SE BOM_R34_SW BOM_R34_NW BOM_R50_NE BOM_R50_SE BOM_R50_SW BOM_R50_NW BOM_R64_NE BOM_R64_SE BOM_R64_SW BOM_R64_NW BOM_ROCI BOM_POCI BOM_EYE BOM_POS_METHOD BOM_PRES_METHOD NADI_LAT NADI_LON NADI_CAT NADI_WIND NADI_PRES WELLINGTON_LAT WELLINGTON_LON WELLINGTON_WIND WELLINGTON_PRES DS824_LAT DS824_LON DS824_STAGE DS824_WIND DS824_PRES TD9636_LAT TD9636_LON TD9636_STAGE TD9636_WIND TD9636_PRES TD9635_LAT TD9635_LON TD9635_WIND TD9635_PRES TD9635_ROCI NEUMANN_LAT NEUMANN_LON NEUMANN_CLASS NEUMANN_WIND NEUMANN_PRES MLC_LAT MLC_LON MLC_CLASS MLC_WIND MLC_PRES USA_GUST BOM_GUST BOM_GUST_PER REUNION_GUST REUNION_GUST_PER USA_SEAHGT USA_SEARAD_NE USA_SEARAD_SE USA_SEARAD_SW USA_SEARAD_NW STORM_SPEED STORM_DIR
1942257N14140 1942 49 WP MM NOT_NAMED 1942-09-13 12:00:00 NR 13.9000 140.100 main 1586 1555 __________O___ -1 13.9000 140.100 3 7 272
1942257N14140 1942 49 WP MM NOT_NAMED 1942-09-13 15:00:00 NR 13.9096 139.757 main 1555 1512 __________P___ -1 13.9096 139.757 3 7 271
1942257N14140 1942 49 WP MM NOT_NAMED 1942-09-13 18:00:00 NR 13.9153 139.400 main 1512 1470 __________P___ -1 13.9153 139.400 3 7 270
1942257N14140 1942 49 WP MM NOT_NAMED 1942-09-13 21:00:00 NR 13.9133 139.019 main 1470 1427 __________P___ -1 13.9133 139.019 3 8 269
1942257N14140 1942 49 WP MM NOT_NAMED 1942-09-14 00:00:00 NR 13.9000 138.600 main 1427 1385 __________O___ -1 13.9000 138.600 4 9 267
1942257N14140 1942 49 WP MM NOT_NAMED 1942-09-14 03:00:00 NR 13.8754 138.134 main 1375 1332 __________P___ -1 13.8754 138.134 4 9 267
1942257N14140 1942 49 WP MM NOT_NAMED 1942-09-14 06:00:00 NR 13.8547 137.624 main 1322 1269 __________P___ -1 13.8547 137.624 4 10 269
1942257N14140 1942 49 WP MM NOT_NAMED 1942-09-14 09:00:00 NR 13.8565 137.077 main 1269 1206 __________P___ -1 13.8565 137.077 4 11 272
1942257N14140 1942 49 WP MM NOT_NAMED 1942-09-14 12:00:00 NR 13.9000 136.500 main 1206 1144 __________O___ -1 13.9000 136.500 4 12 276
1942257N14140 1942 49 WP MM NOT_NAMED 1942-09-14 15:00:00 NR 13.9828 135.875 main 1144 1082 __________P___ -1 13.9828 135.875 4 13 280
1942257N14140 1942 49 WP MM NOT_NAMED 1942-09-14 18:00:00 NR 14.1105 135.228 main 1072 1013 __________P___ -1 14.1105 135.228 4 13 284
1942257N14140 1942 49 WP MM NOT_NAMED 1942-09-14 21:00:00 NR 14.2829 134.591 main 1013 955 __________P___ -1 14.2829 134.591 4 13 288
1942257N14140 1942 49 WP MM NOT_NAMED 1942-09-15 00:00:00 NR 14.5000 134.000 main 955 909 __________O___ -1 14.5000 134.000 4 12 293
1942257N14140 1942 49 WP MM NOT_NAMED 1942-09-15 03:00:00 NR 14.7441 133.483 main 909 869 __________P___ -1 14.7441 133.483 4 11 299
1942257N14140 1942 49 WP MM NOT_NAMED 1942-09-15 06:00:00 NR 15.0318 133.017 main 869 842 __________P___ -1 15.0318 133.017 4 11 305
1942257N14140 1942 49 WP MM NOT_NAMED 1942-09-15 09:00:00 NR 15.3536 132.593 main 846 822 __________P___ -1 15.3536 132.593 4 10 310
1942257N14140 1942 49 WP MM NOT_NAMED 1942-09-15 12:00:00 NR 15.7000 132.200 main 822 810 __________O___ -1 15.7000 132.200 4 10 314
1942257N14140 1942 49 WP MM NOT_NAMED 1942-09-15 15:00:00 NR 16.0567 131.849 main 807 799 __________P___ -1 16.0567 131.849 4 10 318
1942257N14140 1942 49 WP MM NOT_NAMED 1942-09-15 18:00:00 NR 16.4338 131.521 main 799 795 __________P___ -1 16.4338 131.521 4 10 320
1942257N14140 1942 49 WP MM NOT_NAMED 1942-09-15 21:00:00 NR 16.8191 131.183 main 798 778 __________P___ -1 16.8191 131.183 4 10 318
1942257N14140 1942 49 WP MM NOT_NAMED 1942-09-16 00:00:00 NR 17.2000 130.800 main 778 764 __________O___ -1 17.2000 130.800 4 11 315
1942257N14140 1942 49 WP MM NOT_NAMED 1942-09-16 03:00:00 NR 17.6301 130.343 main 755 745 __________P___ -1 17.6301 130.343 4 13 312
1942257N14140 1942 49 WP MM NOT_NAMED 1942-09-16 06:00:00 NR 18.0421 129.835 main 737 726 __________P___ -1 18.0421 129.835 4 13 307
1942257N14140 1942 49 WP MM NOT_NAMED 1942-09-16 09:00:00 NR 18.3830 129.284 main 726 675 __________P___ -1 18.3830 129.284 4 12 297
1942257N14140 1942 49 WP MM NOT_NAMED 1942-09-16 12:00:00 NR 18.6000 128.700 main 675 612 __________O___ -1 18.6000 128.700 4 12 284
1942257N14140 1942 49 WP MM NOT_NAMED 1942-09-16 15:00:00 NR 18.6562 128.093 main 612 548 __________P___ -1 18.6562 128.093 4 12 269
1942257N14140 1942 49 WP MM NOT_NAMED 1942-09-16 18:00:00 NR 18.5792 127.469 main 548 485 __________P___ -1 18.5792 127.469 4 12 258
1942257N14140 1942 49 WP MM NOT_NAMED 1942-09-16 21:00:00 NR 18.4125 126.836 main 474 412 __________P___ -1 18.4125 126.836 4 13 253
1942257N14140 1942 49 WP MM NOT_NAMED 1942-09-17 00:00:00 NR 18.2000 126.200 main 412 __________O___ -1 18.2000 126.200 4 13 251

デジタル台風データ・検索

IBTrACS Databaseについて

本データベースは、米国NOAAが公開する1842年以降の世界の熱帯低気圧のベストトラックデータアーカイブInternational Best Track Archive for Climate Stewardship (IBTrACS)を、ウェブで閲覧しやすい形式に変換したものです。

最終更新日:2021-12-06